Time;durP1;ratioP1;P1;durP2;ratioP2;P2;SDS_P1;SDS_P2;PMS_P1;PMS_P2;Temp;Humidity;BMP_temperature;BMP_pressure;BME280_temperature;BME280_humidity;BME280_pressure;Samples;Min_cycle;Max_cycle;Signal;HPM_P1;HPM_P2
2022/05/01 00:02:10;;;;;;;14.02;12.52;;;8.60;99.90;;;;;;5045209;28;20102;-52
2022/05/01 00:04:36;;;;;;;16.00;12.60;;;8.50;99.90;;;;;;5012154;28;20053;-51
2022/05/01 00:07:03;;;;;;;13.80;12.25;;;8.50;99.90;;;;;;5045422;28;20245;-50
2022/05/01 00:09:30;;;;;;;14.65;12.65;;;8.60;99.90;;;;;;5027123;28;20090;-51
2022/05/01 00:11:56;;;;;;;13.93;12.50;;;8.50;99.90;;;;;;5036571;28;20049;-52
2022/05/01 00:14:22;;;;;;;16.23;13.70;;;8.50;99.90;;;;;;5044756;28;20076;-51
2022/05/01 00:16:49;;;;;;;16.25;13.90;;;8.50;99.90;;;;;;5041816;28;20088;-50
2022/05/01 00:19:15;;;;;;;14.88;13.38;;;8.50;99.90;;;;;;5042614;28;20124;-49
2022/05/01 00:21:42;;;;;;;17.05;13.60;;;8.50;99.90;;;;;;5041274;28;20045;-50
2022/05/01 00:24:08;;;;;;;14.32;12.82;;;8.40;99.90;;;;;;5029787;28;20049;-52
2022/05/01 00:26:35;;;;;;;16.00;13.23;;;8.40;99.90;;;;;;5042416;28;20839;-50
2022/05/01 00:29:02;;;;;;;16.92;13.25;;;8.40;99.90;;;;;;5058653;28;20040;-52
2022/05/01 00:31:28;;;;;;;14.90;13.30;;;8.50;99.90;;;;;;5042338;28;20120;-52
2022/05/01 00:36:40;;;;;;;14.07;12.70;;;8.40;99.90;;;;;;5044138;28;20052;-52
2022/05/01 00:39:07;;;;;;;16.63;13.60;;;8.40;99.90;;;;;;5055607;28;20454;-52
2022/05/01 00:41:36;;;;;;;15.50;13.90;;;8.50;99.90;;;;;;5036471;28;20632;-51
2022/05/01 00:44:04;;;;;;;15.73;14.13;;;8.40;99.90;;;;;;5027616;28;20060;-50
2022/05/01 00:46:32;;;;;;;16.92;14.38;;;8.40;99.90;;;;;;5045434;28;20492;-48
2022/05/01 00:49:04;;;;;;;15.85;14.13;;;8.40;99.90;;;;;;5029541;28;20064;-50
2022/05/01 00:51:33;;;;;;;17.67;14.25;;;8.40;99.90;;;;;;5023864;28;20144;-46
2022/05/01 00:54:00;;;;;;;16.77;14.90;;;8.40;99.90;;;;;;5047826;28;20048;-49
2022/05/01 00:56:29;;;;;;;17.58;14.70;;;8.40;99.90;;;;;;5047039;28;20049;-48
2022/05/01 00:58:56;;;;;;;18.23;15.13;;;8.40;99.90;;;;;;5046989;28;20040;-47
2022/05/01 01:01:22;;;;;;;19.40;15.45;;;8.30;99.90;;;;;;5036660;28;20041;-50
2022/05/01 01:03:48;;;;;;;20.58;16.35;;;8.40;99.90;;;;;;5046032;28;20052;-50
2022/05/01 01:06:14;;;;;;;19.80;16.08;;;8.30;99.90;;;;;;5026992;28;20053;-51
2022/05/01 01:08:41;;;;;;;18.73;16.08;;;8.30;99.90;;;;;;5043745;28;20123;-47
2022/05/01 01:11:07;;;;;;;17.65;15.85;;;8.30;99.90;;;;;;5024419;28;20479;-47
2022/05/01 01:13:33;;;;;;;18.55;16.55;;;8.20;99.90;;;;;;5029597;28;20044;-48
2022/05/01 01:15:59;;;;;;;21.05;16.40;;;8.30;99.90;;;;;;5044340;28;20053;-49
2022/05/01 01:18:26;;;;;;;16.85;15.02;;;8.30;99.90;;;;;;5040042;28;20052;-51
2022/05/01 01:20:53;;;;;;;19.38;16.75;;;8.30;99.90;;;;;;5043922;28;20056;-46
2022/05/01 01:23:20;;;;;;;19.80;17.02;;;8.30;99.90;;;;;;5044713;28;20092;-46
2022/05/01 01:25:47;;;;;;;17.35;15.55;;;8.30;99.90;;;;;;5045007;28;20496;-46
2022/05/01 01:28:14;;;;;;;19.35;16.73;;;8.30;99.90;;;;;;5039679;28;20128;-46
2022/05/01 01:33:28;;;;;;;19.63;16.50;;;8.20;99.90;;;;;;5042553;28;20037;-47
2022/05/01 01:35:56;;;;;;;18.52;16.63;;;8.30;99.90;;;;;;5034052;28;20045;-48
2022/05/01 01:38:23;;;;;;;19.20;17.17;;;8.20;99.90;;;;;;5011633;28;20699;-48
2022/05/01 01:40:55;;;;;;;19.55;17.08;;;8.20;99.90;;;;;;5039958;28;20448;-46
2022/05/01 01:43:29;;;;;;;18.92;15.57;;;8.20;99.90;;;;;;5010950;28;20040;-46
2022/05/01 01:45:55;;;;;;;18.70;16.80;;;8.10;99.90;;;;;;5041384;28;20102;-47
2022/05/01 01:48:22;;;;;;;17.85;15.95;;;8.20;99.90;;;;;;5027481;28;20876;-48
2022/05/01 01:50:56;;;;;;;20.17;16.88;;;8.20;99.90;;;;;;5041990;28;20063;-45
2022/05/01 01:53:23;;;;;;;20.30;17.83;;;8.20;99.90;;;;;;5010969;28;20099;-48
2022/05/01 01:55:49;;;;;;;17.80;15.95;;;8.20;99.90;;;;;;5040811;28;20126;-48
2022/05/01 01:58:15;;;;;;;18.67;16.67;;;8.20;99.90;;;;;;5044717;28;20055;-52
2022/05/01 02:00:41;;;;;;;18.77;16.77;;;8.20;99.90;;;;;;5031684;28;20488;-47
2022/05/01 02:03:07;;;;;;;18.70;16.70;;;8.20;99.90;;;;;;5025885;28;20055;-48
2022/05/01 02:05:34;;;;;;;18.98;16.98;;;8.20;99.90;;;;;;5040999;28;20041;-49
2022/05/01 02:08:01;;;;;;;18.27;16.05;;;8.20;99.90;;;;;;5039497;28;20698;-48
2022/05/01 02:10:27;;;;;;;18.83;16.55;;;8.10;99.90;;;;;;5025732;28;20052;-49
2022/05/01 02:12:54;;;;;;;19.00;16.63;;;8.10;99.90;;;;;;5035595;28;20044;-49
2022/05/01 02:15:20;;;;;;;19.17;17.17;;;8.10;99.90;;;;;;5028562;28;20052;-50
2022/05/01 02:17:50;;;;;;;18.75;16.70;;;8.10;99.90;;;;;;5054483;28;20047;-50
2022/05/01 02:20:16;;;;;;;18.92;16.73;;;8.10;99.90;;;;;;5009745;28;20053;-51
2022/05/01 02:22:43;;;;;;;19.48;17.42;;;8.00;99.90;;;;;;5027018;28;20049;-49
2022/05/01 02:25:12;;;;;;;17.38;15.68;;;8.10;99.90;;;;;;5033437;28;20060;-47
2022/05/01 02:27:38;;;;;;;23.15;18.02;;;8.00;99.90;;;;;;5040198;28;20131;-48
2022/05/01 02:30:06;;;;;;;19.90;17.75;;;8.00;99.90;;;;;;5028522;28;20114;-48
2022/05/01 02:32:36;;;;;;;21.05;18.85;;;8.00;99.90;;;;;;5044977;28;20092;-51
2022/05/01 02:35:03;;;;;;;20.13;17.92;;;8.00;99.90;;;;;;5046113;28;20420;-48
2022/05/01 02:37:29;;;;;;;19.27;17.27;;;8.00;99.90;;;;;;5045137;28;20056;-51
2022/05/01 02:39:55;;;;;;;20.52;18.20;;;8.00;99.90;;;;;;5044541;28;20056;-49
2022/05/01 02:42:21;;;;;;;18.95;16.98;;;8.00;99.90;;;;;;5046443;28;20080;-48
2022/05/01 02:44:47;;;;;;;18.95;17.05;;;8.00;99.90;;;;;;5046515;28;20051;-50
2022/05/01 02:47:13;;;;;;;20.52;17.42;;;8.00;99.90;;;;;;5021998;28;20831;-50
2022/05/01 02:49:40;;;;;;;18.42;16.52;;;8.00;99.90;;;;;;5042763;28;20045;-48
2022/05/01 02:52:07;;;;;;;20.08;17.00;;;8.00;99.90;;;;;;5045931;28;20053;-49
2022/05/01 02:54:33;;;;;;;21.08;17.55;;;8.00;99.90;;;;;;5044205;28;20044;-49
2022/05/01 02:57:00;;;;;;;20.13;18.05;;;8.00;99.90;;;;;;5045701;28;20045;-52
2022/05/01 02:59:26;;;;;;;19.83;17.75;;;8.00;99.90;;;;;;5040767;28;20110;-52
2022/05/01 03:01:54;;;;;;;20.08;17.98;;;8.00;99.90;;;;;;5045301;28;21802;-50
2022/05/01 03:04:20;;;;;;;23.63;18.58;;;8.00;99.90;;;;;;5043396;28;20172;-46
2022/05/01 03:06:46;;;;;;;19.38;17.33;;;8.00;99.90;;;;;;5026204;28;20057;-51
2022/05/01 03:09:12;;;;;;;19.98;17.98;;;8.00;99.90;;;;;;5041781;28;20609;-50
2022/05/01 03:11:38;;;;;;;21.20;18.45;;;8.00;99.90;;;;;;5046102;28;20055;-49
2022/05/01 03:14:04;;;;;;;21.23;18.17;;;8.00;99.90;;;;;;5042879;28;20053;-49
2022/05/01 03:16:31;;;;;;;22.20;18.90;;;8.00;99.90;;;;;;5028401;28;20057;-51
2022/05/01 03:24:27;;;;;;;20.60;18.05;;;7.90;99.90;;;;;;5040101;28;20059;-50
2022/05/01 03:26:53;;;;;;;22.88;19.92;;;7.90;99.90;;;;;;5017840;28;20055;-52
2022/05/01 03:29:20;;;;;;;24.92;20.05;;;7.90;99.90;;;;;;5038098;28;20114;-47
2022/05/01 03:31:48;;;;;;;19.90;17.77;;;7.90;99.90;;;;;;5044642;28;20051;-49
2022/05/01 03:34:14;;;;;;;21.48;19.05;;;7.90;99.90;;;;;;5042230;28;20135;-48
2022/05/01 03:36:40;;;;;;;21.15;18.00;;;7.90;99.90;;;;;;5005942;28;20079;-51
2022/05/01 03:39:06;;;;;;;22.90;19.15;;;7.90;99.90;;;;;;5036531;28;20041;-48
2022/05/01 03:41:33;;;;;;;20.63;18.42;;;7.90;99.90;;;;;;5025679;28;20822;-50
2022/05/01 03:43:59;;;;;;;20.58;18.27;;;7.90;99.90;;;;;;5040268;28;20060;-49
2022/05/01 03:46:25;;;;;;;24.80;19.10;;;7.90;99.90;;;;;;5041921;28;20052;-50
2022/05/01 03:48:51;;;;;;;20.65;18.42;;;7.90;99.90;;;;;;5023583;28;20114;-50
2022/05/01 03:51:18;;;;;;;20.60;18.45;;;7.80;99.90;;;;;;5034375;28;20080;-52
2022/05/01 03:53:47;;;;;;;21.92;19.17;;;7.80;99.90;;;;;;5043824;28;20045;-49
2022/05/01 03:56:14;;;;;;;21.85;19.17;;;7.80;99.90;;;;;;5042666;28;20045;-48
2022/05/01 03:58:40;;;;;;;21.88;19.17;;;7.80;99.90;;;;;;5043900;28;20075;-50
2022/05/01 04:01:07;;;;;;;22.80;19.73;;;7.80;99.90;;;;;;5042159;28;20531;-51
2022/05/01 04:03:33;;;;;;;22.98;20.25;;;7.70;99.90;;;;;;5032515;28;20064;-50
2022/05/01 04:05:59;;;;;;;21.98;18.95;;;7.70;99.90;;;;;;5040157;28;20033;-48
2022/05/01 04:08:26;;;;;;;21.85;19.55;;;7.70;99.90;;;;;;5013763;28;20114;-50
2022/05/01 04:10:52;;;;;;;22.05;19.38;;;7.70;99.90;;;;;;5010067;28;20045;-49
2022/05/01 04:13:22;;;;;;;22.65;19.65;;;7.70;99.90;;;;;;5003038;28;20057;-52
2022/05/01 04:15:48;;;;;;;21.70;19.52;;;7.70;99.90;;;;;;5043856;28;20286;-50
2022/05/01 04:18:18;;;;;;;22.38;20.20;;;7.70;99.90;;;;;;5025254;28;20654;-53
2022/05/01 04:20:46;;;;;;;21.75;19.45;;;7.70;99.90;;;;;;5024747;28;20508;-53
2022/05/01 04:23:14;;;;;;;23.23;19.17;;;7.70;99.90;;;;;;5041170;28;20118;-49
2022/05/01 04:25:40;;;;;;;22.63;18.55;;;7.70;99.90;;;;;;5040625;28;20083;-49
2022/05/01 04:28:09;;;;;;;21.33;19.05;;;7.70;99.90;;;;;;5042745;28;20084;-49
2022/05/01 04:30:36;;;;;;;22.50;19.10;;;7.70;99.90;;;;;;5018770;28;20053;-51
2022/05/01 04:33:05;;;;;;;21.45;19.17;;;7.70;99.90;;;;;;5029383;28;20099;-48
2022/05/01 04:35:34;;;;;;;23.27;20.67;;;7.60;99.90;;;;;;5041629;28;20408;-52
2022/05/01 04:38:03;;;;;;;21.75;19.42;;;7.60;99.90;;;;;;5044076;28;20719;-48
2022/05/01 04:40:33;;;;;;;22.88;19.45;;;7.60;99.90;;;;;;5028776;28;20500;-50
2022/05/01 04:43:04;;;;;;;21.50;19.27;;;7.60;99.90;;;;;;5037429;28;20061;-49
2022/05/01 04:45:31;;;;;;;20.42;18.50;;;7.60;99.90;;;;;;5040557;28;20511;-49
2022/05/01 04:47:58;;;;;;;21.98;19.67;;;7.50;99.90;;;;;;5045047;28;20056;-49
2022/05/01 04:50:26;;;;;;;20.30;17.65;;;7.60;99.90;;;;;;5011297;28;20575;-51
2022/05/01 04:52:52;;;;;;;21.30;19.13;;;7.50;99.90;;;;;;5044262;28;20049;-48
2022/05/01 04:55:18;;;;;;;22.60;20.20;;;7.60;99.90;;;;;;5038555;28;20042;-52
2022/05/01 04:57:44;;;;;;;22.17;19.80;;;7.60;99.90;;;;;;5009351;28;20050;-47
2022/05/01 05:00:11;;;;;;;20.38;18.02;;;7.60;99.90;;;;;;5043658;28;20641;-50
2022/05/01 05:02:42;;;;;;;22.60;18.95;;;7.70;99.90;;;;;;5044104;28;20045;-50
2022/05/01 05:05:10;;;;;;;19.90;18.00;;;7.70;99.90;;;;;;5042924;28;20077;-46
2022/05/01 05:07:37;;;;;;;22.00;18.92;;;7.60;99.90;;;;;;5044268;28;20040;-48
2022/05/01 05:10:04;;;;;;;19.70;17.60;;;7.70;99.90;;;;;;5024669;28;20830;-46
2022/05/01 05:12:31;;;;;;;22.40;17.88;;;7.70;99.90;;;;;;5035935;28;20137;-47
2022/05/01 05:14:59;;;;;;;19.75;17.33;;;7.70;99.90;;;;;;5040172;28;20530;-48
2022/05/01 05:17:26;;;;;;;21.50;18.02;;;7.70;99.90;;;;;;5043181;28;20041;-50
2022/05/01 05:19:53;;;;;;;20.33;18.13;;;7.80;99.90;;;;;;5042400;28;20099;-48
2022/05/01 05:22:19;;;;;;;21.30;18.83;;;7.80;99.90;;;;;;5045008;28;20135;-46
2022/05/01 05:24:45;;;;;;;20.95;18.67;;;7.90;99.90;;;;;;5039986;28;20052;-51
2022/05/01 05:27:11;;;;;;;20.52;18.27;;;7.90;99.90;;;;;;5042878;28;20053;-47
2022/05/01 05:29:38;;;;;;;21.02;17.92;;;7.90;99.90;;;;;;5044683;28;20561;-48
2022/05/01 05:32:05;;;;;;;20.58;18.38;;;8.00;99.90;;;;;;5027678;28;20594;-50
2022/05/01 05:34:31;;;;;;;19.48;17.40;;;8.00;99.90;;;;;;5043043;28;20128;-52
2022/05/01 05:36:57;;;;;;;19.45;17.35;;;8.00;99.90;;;;;;5041468;28;20091;-48
2022/05/01 05:39:23;;;;;;;19.38;17.10;;;8.10;99.90;;;;;;5024605;28;20049;-49
2022/05/01 05:41:49;;;;;;;20.90;16.58;;;8.10;99.90;;;;;;5042080;28;20102;-47
2022/05/01 05:44:16;;;;;;;19.33;17.25;;;8.20;99.90;;;;;;5039536;28;20049;-51
2022/05/01 05:46:42;;;;;;;20.92;18.23;;;8.20;99.90;;;;;;5015802;28;20763;-49
2022/05/01 05:49:08;;;;;;;18.80;16.88;;;8.20;99.90;;;;;;5035790;28;20045;-52
2022/05/01 05:51:34;;;;;;;19.67;17.65;;;8.30;99.90;;;;;;5041990;28;20617;-52
2022/05/01 05:54:00;;;;;;;20.42;17.70;;;8.40;99.90;;;;;;5043987;28;20126;-53
2022/05/01 05:56:26;;;;;;;19.60;17.73;;;8.50;99.90;;;;;;5051432;28;20075;-54
2022/05/01 05:58:52;;;;;;;19.85;17.75;;;8.50;99.90;;;;;;5042311;28;20412;-53
2022/05/01 06:01:19;;;;;;;29.35;22.98;;;8.60;99.90;;;;;;5042268;28;20052;-52
2022/05/01 06:03:45;;;;;;;26.88;22.92;;;8.60;99.90;;;;;;5042197;28;20110;-54
2022/05/01 06:06:11;;;;;;;20.85;18.45;;;8.60;99.90;;;;;;5042994;28;20048;-53
2022/05/01 06:08:38;;;;;;;20.30;18.23;;;8.70;99.90;;;;;;5040990;28;20049;-53
2022/05/01 06:11:04;;;;;;;20.27;18.17;;;8.70;99.90;;;;;;5033098;28;20037;-54
2022/05/01 06:13:31;;;;;;;18.48;16.55;;;8.70;99.90;;;;;;5017998;28;20740;-53
2022/05/01 06:15:57;;;;;;;21.08;18.08;;;8.80;99.90;;;;;;5041560;28;20048;-53
2022/05/01 06:18:23;;;;;;;20.58;18.48;;;8.90;99.90;;;;;;5027613;28;20081;-53
2022/05/01 06:20:50;;;;;;;21.63;17.98;;;8.90;99.90;;;;;;5046078;28;20782;-53
2022/05/01 06:23:16;;;;;;;19.58;17.58;;;9.00;99.90;;;;;;5028823;28;20061;-53
2022/05/01 06:25:43;;;;;;;19.75;17.70;;;9.10;99.90;;;;;;5046292;28;20531;-54
2022/05/01 06:28:10;;;;;;;19.65;17.80;;;9.10;99.90;;;;;;5043486;28;20527;-55
2022/05/01 06:30:40;;;;;;;20.20;18.13;;;9.20;99.90;;;;;;5047105;28;20091;-55
2022/05/01 06:33:10;;;;;;;19.20;17.30;;;9.30;99.90;;;;;;5054455;28;20068;-54
2022/05/01 06:35:36;;;;;;;17.60;15.88;;;9.30;99.90;;;;;;5028311;28;20053;-54
2022/05/01 06:38:03;;;;;;;19.95;16.33;;;9.30;99.90;;;;;;5019422;28;20045;-54
2022/05/01 06:40:29;;;;;;;17.52;15.68;;;9.40;99.90;;;;;;5027437;28;20485;-54
2022/05/01 06:42:55;;;;;;;19.35;17.40;;;9.50;99.90;;;;;;5034134;28;20091;-53
2022/05/01 06:45:21;;;;;;;19.42;16.85;;;9.50;99.90;;;;;;5009892;28;20049;-52
2022/05/01 06:47:47;;;;;;;17.98;16.08;;;9.50;99.90;;;;;;5040822;28;20117;-55
2022/05/01 06:50:14;;;;;;;19.00;17.20;;;9.60;99.90;;;;;;5035695;28;20045;-52
2022/05/01 06:52:41;;;;;;;19.60;16.17;;;9.70;99.90;;;;;;5031220;28;20040;-54
2022/05/01 06:55:07;;;;;;;19.10;17.17;;;9.80;99.90;;;;;;5046580;28;20129;-53
2022/05/01 06:57:33;;;;;;;24.80;22.20;;;9.80;99.90;;;;;;5045350;28;20036;-53
2022/05/01 07:00:00;;;;;;;17.88;16.15;;;9.90;99.90;;;;;;5025410;28;20045;-53
2022/05/01 07:02:26;;;;;;;21.40;19.20;;;10.00;99.90;;;;;;5043912;28;20159;-51
2022/05/01 07:04:52;;;;;;;22.08;18.48;;;10.10;99.90;;;;;;5062005;28;20057;-53
2022/05/01 07:07:18;;;;;;;17.52;15.77;;;10.10;99.90;;;;;;5010346;28;20587;-54
2022/05/01 07:09:44;;;;;;;30.27;27.30;;;10.20;99.90;;;;;;5042345;28;20099;-55
2022/05/01 07:12:10;;;;;;;20.48;18.48;;;10.40;99.90;;;;;;5037115;28;20063;-54
2022/05/01 07:14:40;;;;;;;55.90;49.45;;;10.40;99.90;;;;;;5035103;28;20049;-53
2022/05/01 07:17:06;;;;;;;18.45;16.55;;;10.40;99.90;;;;;;5042188;28;20045;-52
2022/05/01 07:19:32;;;;;;;21.98;19.67;;;10.60;99.90;;;;;;5037448;28;20045;-54
2022/05/01 07:21:58;;;;;;;15.85;14.32;;;10.80;99.90;;;;;;5020469;28;20056;-54
2022/05/01 07:24:24;;;;;;;16.92;15.15;;;10.90;99.90;;;;;;5021498;28;20514;-54
2022/05/01 07:26:50;;;;;;;17.80;15.60;;;11.00;99.90;;;;;;5032063;28;20048;-53
2022/05/01 07:29:16;;;;;;;14.90;13.15;;;11.10;99.90;;;;;;5034432;28;20075;-53
2022/05/01 07:31:42;;;;;;;25.20;22.58;;;11.20;99.90;;;;;;5031024;28;20234;-54
2022/05/01 07:34:11;;;;;;;13.85;12.32;;;11.40;99.90;;;;;;5016978;28;20054;-53
2022/05/01 07:36:37;;;;;;;14.43;11.27;;;11.40;99.90;;;;;;5036100;28;20133;-51
2022/05/01 07:39:04;;;;;;;11.93;10.35;;;11.50;99.90;;;;;;5002943;28;20847;-52
2022/05/01 07:41:30;;;;;;;14.10;12.70;;;11.70;99.90;;;;;;5048232;28;20065;-54
2022/05/01 07:43:56;;;;;;;15.77;14.13;;;11.70;99.90;;;;;;5032618;28;20044;-51
2022/05/01 07:46:22;;;;;;;13.40;12.02;;;11.80;99.90;;;;;;5036664;28;20170;-53
2022/05/01 07:48:49;;;;;;;10.18;8.93;;;12.00;99.90;;;;;;5034602;28;20155;-55
2022/05/01 07:51:16;;;;;;;10.45;7.90;;;12.10;99.90;;;;;;5041606;28;20051;-53
2022/05/01 07:53:42;;;;;;;10.77;9.70;;;12.30;99.90;;;;;;5032727;28;20056;-56
2022/05/01 07:56:08;;;;;;;11.05;9.95;;;12.20;99.90;;;;;;5020950;28;20098;-54
2022/05/01 07:58:34;;;;;;;13.32;10.55;;;12.40;99.90;;;;;;5033301;28;20381;-53
2022/05/01 08:01:03;;;;;;;15.48;13.73;;;12.50;99.90;;;;;;5044584;28;20044;-51
2022/05/01 08:06:14;;;;;;;11.50;9.80;;;13.10;99.90;;;;;;5032741;28;20099;-54
2022/05/01 08:08:41;;;;;;;15.52;12.73;;;13.20;99.90;;;;;;5045736;28;20527;-54
2022/05/01 08:11:08;;;;;;;13.52;11.73;;;13.40;99.90;;;;;;5021670;28;20076;-54
2022/05/01 08:13:34;;;;;;;11.52;9.70;;;13.50;99.90;;;;;;5015763;28;20052;-54
2022/05/01 08:16:01;;;;;;;11.18;9.02;;;13.40;99.90;;;;;;5040457;28;20048;-54
2022/05/01 08:21:12;;;;;;;13.75;9.20;;;13.50;99.90;;;;;;5032717;28;20094;-55
2022/05/01 08:23:40;;;;;;;11.32;10.10;;;13.70;99.90;;;;;;5018587;28;20053;-54
2022/05/01 08:26:07;;;;;;;13.35;9.63;;;13.50;99.90;;;;;;5051192;28;20055;-52
2022/05/01 08:28:35;;;;;;;11.45;9.85;;;13.50;99.90;;;;;;5038154;28;20053;-53
2022/05/01 08:31:03;;;;;;;171.18;152.25;;;13.70;99.90;;;;;;5022033;28;20447;-55
2022/05/01 08:33:29;;;;;;;12.77;11.20;;;13.90;99.90;;;;;;5040072;28;20045;-54
2022/05/01 08:35:56;;;;;;;11.85;9.25;;;14.00;99.90;;;;;;5036769;28;20045;-55
2022/05/01 08:38:22;;;;;;;8.95;7.88;;;14.20;99.90;;;;;;5041278;28;20049;-54
2022/05/01 08:40:51;;;;;;;28.83;25.15;;;14.20;99.90;;;;;;5064161;28;20523;-55
2022/05/01 08:43:20;;;;;;;24.95;21.38;;;14.50;99.90;;;;;;5047262;28;20048;-55
2022/05/01 08:46:07;;;;;;;11.80;10.60;;;14.50;99.90;;;;;;5045356;28;20053;-55
2022/05/01 08:48:49;;;;;;;23.95;21.45;;;14.60;99.90;;;;;;5032683;28;20134;-55
2022/05/01 08:51:17;;;;;;;19.30;16.92;;;14.50;99.90;;;;;;5033945;28;20137;-55
2022/05/01 08:53:44;;;;;;;9.85;8.77;;;14.60;99.90;;;;;;5046266;28;20092;-55
2022/05/01 08:56:11;;;;;;;10.45;9.10;;;14.50;99.90;;;;;;5043121;28;20045;-55
2022/05/01 08:58:41;;;;;;;9.55;8.65;;;14.60;99.90;;;;;;5044904;28;20053;-53
2022/05/01 09:01:11;;;;;;;10.95;8.70;;;14.40;99.90;;;;;;5043399;28;20816;-48
2022/05/01 09:03:40;;;;;;;12.05;10.75;;;14.50;99.90;;;;;;5046744;28;20120;-50
2022/05/01 09:06:06;;;;;;;11.63;8.98;;;14.50;99.90;;;;;;5044173;28;20080;-49
2022/05/01 09:08:32;;;;;;;9.07;8.18;;;14.80;99.90;;;;;;5028636;28;20057;-51
2022/05/01 09:12:49;;;;;;;12.23;8.90;;;15.00;99.90;;;;;;5044402;28;20495;-48
2022/05/01 09:13:45;;;;;;;10.88;8.27;;;14.80;99.90;;;;;;5046003;28;20045;-48
2022/05/01 09:16:12;;;;;;;9.60;8.57;;;14.80;99.90;;;;;;5062071;28;20053;-48
2022/05/01 09:18:46;;;;;;;12.52;10.55;;;15.10;99.90;;;;;;5041829;28;20048;-52
2022/05/01 09:21:13;;;;;;;10.00;8.07;;;15.20;99.90;;;;;;5046640;28;20045;-52
2022/05/01 09:23:41;;;;;;;9.93;8.50;;;15.20;99.90;;;;;;5028436;28;20094;-52
2022/05/01 09:26:09;;;;;;;10.32;7.90;;;15.00;99.90;;;;;;5044621;28;20052;-48
2022/05/01 09:28:37;;;;;;;9.63;7.60;;;15.20;99.90;;;;;;5042826;28;20048;-52
2022/05/01 09:31:03;;;;;;;10.18;8.05;;;15.30;99.90;;;;;;5041856;28;20539;-49
2022/05/01 09:33:30;;;;;;;10.75;8.70;;;15.20;99.90;;;;;;5044021;28;20052;-51
2022/05/01 09:35:57;;;;;;;7.65;6.85;;;15.70;99.90;;;;;;5044454;28;20257;-50
2022/05/01 09:38:25;;;;;;;8.30;7.03;;;15.90;99.90;;;;;;5040200;28;20049;-50
2022/05/01 09:40:58;;;;;;;9.13;7.20;;;15.90;99.90;;;;;;5025045;28;20152;-49
2022/05/01 09:43:36;;;;;;;8.57;6.57;;;15.80;99.90;;;;;;5026036;28;20049;-57
2022/05/01 09:46:14;;;;;;;8.10;6.78;;;15.70;99.90;;;;;;5025326;28;20152;-51
2022/05/01 09:48:42;;;;;;;7.70;6.90;;;15.70;99.90;;;;;;5033529;28;20378;-50
2022/05/01 09:51:18;;;;;;;7.70;6.50;;;15.70;99.90;;;;;;5044333;28;20094;-49
2022/05/01 09:53:45;;;;;;;9.02;6.40;;;15.80;99.90;;;;;;5026956;28;20076;-50
2022/05/01 09:56:12;;;;;;;7.45;6.32;;;16.20;99.90;;;;;;5044363;28;20054;-52
2022/05/01 09:58:40;;;;;;;8.43;6.28;;;16.30;99.90;;;;;;5045604;28;20761;-51
2022/05/01 10:01:11;;;;;;;8.85;5.82;;;16.50;99.90;;;;;;5037205;28;20244;-51
2022/05/01 10:03:40;;;;;;;11.52;10.43;;;17.30;96.70;;;;;;5042848;28;20065;-55
2022/05/01 10:06:10;;;;;;;17.95;15.95;;;18.00;94.70;;;;;;5025404;28;20114;-57
2022/05/01 10:08:38;;;;;;;27.65;24.67;;;18.20;91.40;;;;;;5058437;28;20045;-56
2022/05/01 10:11:05;;;;;;;7.03;6.30;;;18.70;88.10;;;;;;5043471;28;20155;-57
2022/05/01 10:13:33;;;;;;;7.20;5.75;;;18.90;81.60;;;;;;5023867;28;20059;-57
2022/05/01 10:16:07;;;;;;;10.75;9.65;;;18.50;80.70;;;;;;5039793;28;20488;-57
2022/05/01 10:18:35;;;;;;;15.50;13.80;;;18.90;78.90;;;;;;5044259;28;20511;-57
2022/05/01 10:21:02;;;;;;;8.63;6.90;;;19.30;79.20;;;;;;5044338;28;20056;-57
2022/05/01 10:23:29;;;;;;;10.60;9.48;;;19.30;78.30;;;;;;5044078;28;20135;-56
2022/05/01 10:26:01;;;;;;;6.78;6.07;;;19.20;73.80;;;;;;5043286;28;20919;-57
2022/05/01 10:28:53;;;;;;;11.57;9.35;;;18.90;76.50;;;;;;5044349;28;20052;-58
2022/05/01 10:35:04;;;;;;;12.27;10.95;;;18.20;64.80;;;;;;5039246;28;20037;-57
2022/05/01 10:37:39;;;;;;;8.82;6.40;;;18.60;65.10;;;;;;5040583;28;20059;-57
2022/05/01 10:40:06;;;;;;;7.00;6.30;;;18.90;66.10;;;;;;5041056;28;20045;-58
2022/05/01 10:42:42;;;;;;;8.32;6.70;;;19.30;65.80;;;;;;5058581;28;20106;-57
2022/05/01 10:45:23;;;;;;;7.78;6.07;;;19.00;66.30;;;;;;5044215;28;20404;-57
2022/05/01 10:47:56;;;;;;;8.40;6.32;;;19.90;60.10;;;;;;5044281;28;20091;-57
2022/05/01 10:50:24;;;;;;;9.40;5.85;;;20.60;55.50;;;;;;5029895;28;20825;-57
2022/05/01 10:53:16;;;;;;;6.63;5.93;;;20.50;54.80;;;;;;5020175;28;20040;-59
2022/05/01 10:55:48;;;;;;;11.23;8.57;;;19.40;50.50;;;;;;5041896;28;20045;-57
2022/05/01 10:58:26;;;;;;;10.10;8.95;;;20.20;50.90;;;;;;5044718;28;20056;-58
2022/05/01 11:00:53;;;;;;;6.80;4.65;;;20.10;50.20;;;;;;5041395;28;20076;-57
2022/05/01 11:03:30;;;;;;;7.47;5.30;;;19.60;49.10;;;;;;5043984;28;20049;-55
2022/05/01 11:06:02;;;;;;;8.20;5.80;;;19.90;48.80;;;;;;5038449;28;20048;-56
2022/05/01 11:08:33;;;;;;;7.45;6.32;;;19.90;47.70;;;;;;5041479;28;20099;-55
2022/05/01 11:11:00;;;;;;;11.75;9.60;;;20.10;47.40;;;;;;5024875;28;20049;-56
2022/05/01 11:13:36;;;;;;;5.55;4.03;;;19.90;48.00;;;;;;5032117;28;20464;-55
2022/05/01 11:16:07;;;;;;;4.90;4.35;;;19.10;46.40;;;;;;5035995;28;20172;-57
2022/05/01 11:18:35;;;;;;;5.45;4.68;;;18.40;47.60;;;;;;5016865;28;20049;-53
2022/05/01 11:21:28;;;;;;;6.43;4.35;;;18.50;50.40;;;;;;5038595;28;20052;-51
2022/05/01 11:24:00;;;;;;;7.43;4.75;;;18.10;46.90;;;;;;5026954;28;20634;-52
2022/05/01 11:26:27;;;;;;;5.70;4.63;;;18.10;50.30;;;;;;5040787;28;20458;-53
2022/05/01 11:28:55;;;;;;;8.52;5.00;;;17.90;52.10;;;;;;5041635;28;20517;-56
2022/05/01 11:31:37;;;;;;;5.95;4.80;;;17.30;53.00;;;;;;5036156;28;20048;-57
2022/05/01 11:34:22;;;;;;;9.27;6.57;;;17.20;54.20;;;;;;5041872;28;20088;-57
2022/05/01 11:37:03;;;;;;;7.93;5.53;;;16.90;59.10;;;;;;5044339;28;20076;-50
2022/05/01 11:39:48;;;;;;;7.53;5.82;;;16.50;62.40;;;;;;5040305;28;20049;-57
2022/05/01 11:42:27;;;;;;;6.65;5.50;;;16.30;64.90;;;;;;5049382;28;20056;-57
2022/05/01 11:44:57;;;;;;;7.30;5.18;;;16.10;65.70;;;;;;5046782;28;20055;-56
2022/05/01 11:47:25;;;;;;;8.80;5.80;;;16.00;66.50;;;;;;5046125;28;20557;-51
2022/05/01 11:49:52;;;;;;;8.02;6.00;;;15.90;65.00;;;;;;5046921;28;20056;-56
2022/05/01 11:52:18;;;;;;;6.07;5.38;;;15.70;67.10;;;;;;5045123;28;20049;-56
2022/05/01 11:54:50;;;;;;;8.88;5.40;;;15.90;66.70;;;;;;5041829;28;20119;-50
2022/05/01 12:03:04;;;;;;;6.85;4.72;;;16.70;62.80;;;;;;5027580;28;20095;-50
2022/05/01 12:05:44;;;;;;;5.32;4.70;;;16.70;60.50;;;;;;5020379;28;20130;-56
2022/05/01 12:08:12;;;;;;;6.57;4.60;;;16.70;58.80;;;;;;5026287;28;20057;-56
2022/05/01 12:10:42;;;;;;;38.15;34.45;;;16.60;59.30;;;;;;5046769;28;20072;-57
2022/05/01 12:13:23;;;;;;;5.13;4.50;;;16.80;54.20;;;;;;5045225;28;20106;-56
2022/05/01 12:15:51;;;;;;;4.22;3.53;;;16.70;56.20;;;;;;5043714;28;20040;-56
2022/05/01 12:18:18;;;;;;;7.35;4.22;;;17.10;54.40;;;;;;5045277;28;20052;-58
2022/05/01 12:20:45;;;;;;;6.72;4.40;;;17.10;54.70;;;;;;5038055;28;20048;-57
2022/05/01 12:23:22;;;;;;;17.52;15.63;;;17.20;52.80;;;;;;5047242;28;20194;-57
2022/05/01 12:25:50;;;;;;;6.80;4.43;;;17.60;49.60;;;;;;5050965;28;20048;-57
2022/05/01 12:28:18;;;;;;;5.25;4.05;;;17.70;51.30;;;;;;5057562;28;20072;-58
2022/05/01 12:30:49;;;;;;;8.95;7.55;;;17.50;51.00;;;;;;5027713;28;20052;-56
2022/05/01 12:33:21;;;;;;;8.55;7.05;;;17.90;50.80;;;;;;5029108;28;20558;-56
2022/05/01 12:35:55;;;;;;;4.97;3.72;;;17.80;50.00;;;;;;5023035;28;20103;-57
2022/05/01 12:38:22;;;;;;;7.50;4.28;;;17.80;50.40;;;;;;5036133;28;20886;-57
2022/05/01 12:43:52;;;;;;;6.45;4.30;;;18.10;48.50;;;;;;5042843;28;20049;-55
2022/05/01 12:46:21;;;;;;;6.40;3.63;;;18.10;48.60;;;;;;5043815;28;20098;-55
2022/05/01 12:48:47;;;;;;;4.90;3.35;;;18.50;47.30;;;;;;5044709;28;20059;-55
2022/05/01 12:51:14;;;;;;;4.78;3.67;;;18.60;46.80;;;;;;5042593;28;20057;-51
2022/05/01 12:53:40;;;;;;;6.30;3.92;;;18.70;46.50;;;;;;5044178;28;20543;-51
2022/05/01 12:56:22;;;;;;;5.88;3.80;;;18.80;46.50;;;;;;5017814;28;20436;-51
2022/05/01 12:58:51;;;;;;;5.03;3.58;;;18.80;46.00;;;;;;5043117;28;20087;-50
2022/05/01 13:01:24;;;;;;;5.20;3.92;;;18.30;45.30;;;;;;5044126;28;20128;-50
2022/05/01 13:03:51;;;;;;;5.55;4.10;;;18.30;45.10;;;;;;5045211;28;20401;-48
2022/05/01 13:06:18;;;;;;;6.03;3.83;;;18.50;46.20;;;;;;5023561;28;20078;-50
2022/05/01 13:08:53;;;;;;;6.00;4.57;;;18.40;46.50;;;;;;5043338;28;20152;-49
2022/05/01 13:11:31;;;;;;;5.63;4.05;;;18.80;46.40;;;;;;5028043;28;20591;-49
2022/05/01 13:14:08;;;;;;;5.47;3.75;;;18.80;44.70;;;;;;5044084;28;20186;-48